Latest Weather Observations for Walgett

IDN60801

Issued at 7:05 pm EDT Saturday 29 November 2014 (issued every 30 minutes, with the page automatically refreshed every 10 minutes)

About weather observations | Map of weather stations | Latest weather observations for NSW | Other Formats
Station Details ID: 052088 Name: WALGETT AIRPORT AWS Lat: -30.04 Lon: 148.12 Height: 133.0 m
Data from the previous 72 hours. | See also: Recent months at Walgett
Date/Time
EDT
Temp
°C
App
Temp
°C
Dew
Point
Rel
Hum
%
Delta-T
°C
Wind Press
QNH
hPa
Press
MSL
hPa
Rain
since 9 am
mm
Dir
 
Spd
km/h
Gust
km/h
Spd
kts
Gust
kts
29/07:00pm 30.3 25.6 10.8 30 11.3 NNE 26 33 14 18 1011.3 1010.7 0.2
29/06:30pm 30.6 24.9 11.1 30 11.3 NNE 32 41 17 22 1010.5 1009.8 0.2
29/06:00pm 31.7 28.4 11.5 29 11.9 NNE 20 30 11 16 1010.3 1009.6 0.2
29/05:30pm 33.5 28.8 11.9 27 12.8 NNE 28 35 15 19 1009.9 1009.2 0.2
29/05:00pm 33.3 30.2 12.3 28 12.6 NE 20 30 11 16 1009.7 1009.0 0.2
29/04:30pm 34.4 29.0 12.1 26 13.3 NNE 32 39 17 21 1009.9 1009.2 0.2
29/04:00pm 33.5 30.3 11.4 26 13.1 NE 19 28 10 15 1010.5 1009.8 0.2
29/03:30pm 33.8 32.0 12.2 27 12.9 ENE 13 22 7 12 1011.5 1010.9 0.2
29/03:00pm 32.6 29.7 12.3 29 12.1 ENE 19 26 10 14 1012.3 1011.7 0.2
29/02:30pm 33.6 30.9 13.6 29 12.2 NNE 20 41 11 22 1013.0 1012.4 0.2
29/02:00pm 32.1 30.5 13.8 33 11.1 ENE 15 26 8 14 1013.5 1012.9 0.2
29/01:30pm 32.2 28.9 13.9 33 11.2 N 24 32 13 17 1014.2 1013.6 0.2
29/01:00pm 31.2 28.8 14.4 36 10.3 N 20 28 11 15 1014.7 1014.1 0.2
29/12:30pm 30.4 28.0 14.5 38 9.7 N 20 35 11 19 1015.3 1014.7 0.2
29/12:00pm 30.1 28.5 15.0 40 9.3 N 17 20 9 11 1015.8 1015.2 0.2
29/11:30am 29.0 26.6 15.5 44 8.3 N 22 33 12 18 1016.3 1015.7 0.2
29/11:00am 28.4 24.8 15.3 45 8.0 NNE 28 37 15 20 1016.5 1015.9 0.2
29/10:30am 26.9 22.7 14.6 46 7.4 NNE 30 41 16 22 1016.8 1016.2 0.2
29/10:00am 27.2 23.0 15.6 49 7.1 N 32 44 17 24 1017.0 1016.4 0.2
29/09:30am 26.0 21.3 14.8 50 6.8 N 33 43 18 23 1017.1 1016.5 0.2
29/09:00am 25.6 21.8 14.7 51 6.5 NNE 28 37 15 20 1017.4 1016.7 0.8
29/08:30am 23.7 20.2 14.4 56 5.5 NNE 26 33 14 18 1017.3 1016.6 0.8
29/08:00am 22.9 19.5 14.7 60 4.9 NE 26 32 14 17 1017.1 1016.5 0.8
29/07:30am 22.2 19.1 14.6 62 4.5 NE 24 30 13 16 1016.9 1016.3 0.8
29/07:00am 21.4 19.3 15.3 68 3.6 NE 20 24 11 13 1016.8 1016.2 0.8
29/06:30am 21.3 19.5 15.4 69 3.5 NE 19 24 10 13 1016.4 1015.8 0.8
29/06:00am 20.8 18.9 15.1 70 3.4 NE 19 28 10 15 1015.9 1015.3 0.8
29/05:30am 21.0 18.6 15.5 71 3.3 NE 22 30 12 16 1015.6 1015.0 0.8
29/05:00am 20.5 18.3 15.9 75 2.8 NE 22 30 12 16 1015.6 1015.0 0.8
29/04:30am 20.1 19.4 16.3 79 2.3 ENE 15 19 8 10 1015.7 1015.1 0.8
29/04:00am 20.3 20.7 16.3 78 2.4 NE 9 11 5 6 1015.7 1015.1 0.8
29/03:30am 20.5 20.1 16.3 77 2.5 NE 13 17 7 9 1015.4 1014.8 0.8
29/03:00am 20.4 18.8 16.4 78 2.4 NE 20 24 11 13 1015.2 1014.6 0.8
29/02:30am 21.1 19.0 16.3 74 2.9 ENE 22 30 12 16 1015.8 1015.2 0.8
29/02:00am 21.7 19.7 16.4 72 3.2 NE 22 32 12 17 1015.7 1015.1 0.8
29/01:30am 22.4 20.0 16.4 69 3.7 ENE 24 32 13 17 1015.8 1015.2 0.8
29/01:00am 23.2 21.0 16.0 64 4.4 NNE 22 28 12 15 1015.6 1015.0 0.8
29/12:30am 23.5 20.2 16.1 63 4.5 NNE 28 35 15 19 1015.2 1014.6 0.8
29/12:27am 23.5 20.1 15.8 62 4.7 NNE 28 35 15 19 1015.2 1014.6 0.8
29/12:10am 23.6 19.2 15.6 61 4.8 NNE 33 43 18 23 1015.1 1014.5 0.8
29/12:00am 23.8 19.2 15.0 57 5.3 NNE 33 46 18 25 1015.1 1014.5 0.6
 
Date/Time
EDT
Temp
°C
App
Temp
°C
Dew
Point
Rel
Hum
%
Delta-T
°C
Wind Press
QNH
hPa
Press
MSL
hPa
Rain
since 9 am
mm
Dir
 
Spd
km/h
Gust
km/h
Spd
kts
Gust
kts
28/11:30pm 27.1 20.6 11.6 38 8.9 NE 37 50 20 27 1014.7 1014.1 0.0
28/11:00pm 27.6 21.1 10.3 34 9.8 ENE 35 48 19 26 1014.4 1013.8 0.0
28/10:54pm 27.8 22.4 9.6 32 10.2 E 28 43 15 23 1014.3 1013.7 0.0
28/10:30pm 27.1 25.1 8.5 31 10.2 E 9 13 5 7 1014.0 1013.4 0.0
28/10:00pm 27.6 25.6 8.5 30 10.5 E 9 13 5 7 1013.9 1013.3 0.0
28/09:30pm 28.3 25.9 8.6 29 10.9 E 11 13 6 7 1013.7 1013.1 0.0
28/09:00pm 28.7 26.1 7.9 27 11.3 E 11 13 6 7 1013.4 1012.8 0.0
28/08:30pm 29.8 26.9 8.2 26 11.9 ESE 13 19 7 10 1013.0 1012.4 0.0
28/08:00pm 30.8 27.8 9.1 26 12.2 E 15 19 8 10 1013.0 1012.4 0.0
28/07:30pm 31.7 28.5 9.8 26 12.5 ESE 17 24 9 13 1012.7 1012.1 0.0
28/07:00pm 32.4 28.4 9.2 24 13.2 ESE 20 26 11 14 1012.5 1011.9 0.0
28/06:30pm 32.6 28.3 10.6 26 12.8 ESE 24 33 13 18 1012.2 1011.6 0.0
28/06:00pm 33.5 29.6 10.8 25 13.3 ESE 22 30 12 16 1012.0 1011.4 0.0
28/05:30pm 33.5 29.4 11.4 26 13.0 SE 24 33 13 18 1012.1 1011.5 0.0
28/05:00pm 33.9 31.3 9.2 22 14.1 ENE 13 20 7 11 1012.4 1011.8 0.0
28/04:30pm 33.8 30.4 10.4 24 13.6 ENE 19 28 10 15 1012.7 1012.1 0.0
28/04:00pm 32.9 29.2 10.3 25 13.1 NE 20 32 11 17 1013.2 1012.6 0.0
28/03:30pm 33.6 30.2 11.4 25 13.1 E 20 32 11 17 1013.6 1013.0 0.0
28/03:00pm 34.6 31.5 12.3 26 13.4 ENE 20 33 11 18 1014.0 1013.4 0.0
28/02:30pm 33.2 31.0 12.2 28 12.5 E 15 24 8 13 1014.6 1014.0 0.0
28/02:00pm 32.2 29.2 12.4 30 11.8 ENE 20 26 11 14 1015.2 1014.6 0.0
28/01:30pm 31.6 29.3 12.9 32 11.2 NNE 17 30 9 16 1015.8 1015.2 0.0
28/01:00pm 31.6 29.4 13.4 33 11.0 NE 17 28 9 15 1016.5 1015.9 0.0
28/12:30pm 30.9 28.1 13.2 34 10.6 NNE 20 28 11 15 1017.0 1016.4 0.0
28/12:00pm 31.3 28.8 14.0 35 10.5 NE 20 33 11 18 1017.4 1016.7 0.0
28/11:30am 30.6 26.9 13.8 35 10.2 NNE 26 37 14 20 1017.8 1017.1 0.0
28/11:00am 29.7 26.0 13.9 38 9.5 NE 26 39 14 21 1018.0 1017.4 0.0
28/10:30am 28.3 23.7 13.4 40 8.9 NE 30 41 16 22 1018.3 1017.7 0.0
28/10:00am 27.0 21.5 12.6 41 8.4 NE 33 44 18 24 1018.3 1017.7 0.0
28/09:30am 27.1 21.8 13.1 42 8.3 NE 33 46 18 25 1018.3 1017.7 0.0
28/09:00am 25.8 21.1 11.9 42 8.0 ENE 28 41 15 22 1018.5 1017.9 0.0
28/08:30am 24.7 19.7 10.9 42 7.8 ENE 28 37 15 20 1018.4 1017.8 0.0
28/08:00am 23.3 18.5 10.4 44 7.1 E 26 35 14 19 1018.3 1017.7 0.0
28/07:30am 22.2 18.6 10.7 48 6.4 E 20 28 11 15 1018.3 1017.7 0.0
28/07:00am 21.2 17.8 10.7 51 5.8 E 19 24 10 13 1017.9 1017.3 0.0
28/06:30am 20.5 17.9 10.6 53 5.4 E 15 19 8 10 1017.7 1017.0 0.0
28/06:00am 20.7 17.2 10.2 51 5.7 E 19 24 10 13 1017.3 1016.6 0.0
28/05:30am 21.2 17.4 9.8 48 6.2 E 20 24 11 13 1016.8 1016.2 0.0
28/05:00am 21.9 18.2 10.1 47 6.4 E 20 30 11 16 1016.6 1016.0 0.0
28/04:30am 22.2 17.8 10.4 47 6.5 E 24 30 13 16 1016.3 1015.7 0.0
28/04:00am 22.6 18.4 11.0 48 6.5 E 24 33 13 18 1016.0 1015.4 0.0
28/03:30am 22.8 18.3 11.5 49 6.4 E 26 37 14 20 1015.9 1015.3 0.0
28/03:00am 23.2 18.4 11.6 48 6.5 E 28 39 15 21 1016.0 1015.4 0.0
28/02:30am 23.7 19.0 12.0 48 6.7 E 28 37 15 20 1015.8 1015.2 0.0
28/02:00am 24.1 21.0 12.1 47 6.9 E 20 32 11 17 1016.0 1015.4 0.0
28/01:30am 24.5 20.5 11.8 45 7.2 E 24 35 13 19 1016.0 1015.4 0.0
28/01:00am 24.9 21.0 12.2 45 7.3 E 24 35 13 19 1016.0 1015.4 0.0
28/12:30am 25.3 21.3 11.8 43 7.7 E 24 33 13 18 1016.0 1015.4 0.0
28/12:00am 25.6 20.4 11.7 42 8.0 E 30 43 16 23 1016.1 1015.5 0.0
 
Date/Time
EDT
Temp
°C
App
Temp
°C
Dew
Point
Rel
Hum
%
Delta-T
°C
Wind Press
QNH
hPa
Press
MSL
hPa
Rain
since 9 am
mm
Dir
 
Spd
km/h
Gust
km/h
Spd
kts
Gust
kts
27/11:30pm 26.2 21.5 11.9 41 8.2 E 28 44 15 24 1016.1 1015.5 0.0
27/11:00pm 26.8 21.9 11.3 38 8.9 E 28 39 15 21 1015.7 1015.1 0.0
27/10:44pm 27.1 21.6 10.7 35 9.3 ESE 30 48 16 26 1015.6 1015.0 0.0
27/10:30pm 27.6 22.2 10.8 35 9.6 ESE 30 46 16 25 1015.5 1014.9 0.0
27/10:00pm 28.1 22.0 8.4 29 10.8 SE 30 41 16 22 1015.1 1014.5 0.0
27/09:59pm 27.5 21.3 6.3 26 11.2 SE 28 39 15 21 1015.1 1014.5 0.0
27/09:30pm 25.7 22.1 0.4 19 11.9 SW 9 11 5 6 1014.4 1013.8 0.0
27/09:00pm 27.1 23.5 0.8 18 12.5 SW 9 11 5 6 1014.1 1013.5 0.0
27/08:30pm 28.7 24.3 0.4 16 13.6 SSW 13 15 7 8 1013.8 1013.2 0.0
27/08:00pm 30.0 25.3 0.6 15 14.3 SSW 15 19 8 10 1013.7 1013.1 0.0
27/07:30pm 32.0 26.4 0.2 13 15.5 SSW 19 26 10 14 1013.6 1013.0 0.0
27/07:00pm 32.9 26.7 -0.2 12 16.2 SSW 22 26 12 14 1013.3 1012.7 0.0
27/06:30pm 33.7 27.4 -0.8 11 16.8 S 22 32 12 17 1013.2 1012.6 0.0
27/06:00pm 34.3 26.8 -1.7 10 17.3 SSW 28 37 15 20 1013.0 1012.4 0.0
27/05:30pm 34.4 28.4 -3.0 9 17.6 S 19 28 10 15 1013.0 1012.4 0.0
27/05:00pm 34.4 28.0 -1.6 10 17.4 S 22 39 12 21 1013.2 1012.6 0.0
27/04:30pm 34.8 29.2 0.0 11 17.3 SW 19 26 10 14 1013.3 1012.7 0.0
27/04:00pm 34.7 28.5 -0.1 11 17.2 SSW 22 33 12 18 1013.7 1013.1 0.0
27/03:30pm 33.9 28.0 -0.7 11 16.9 SSW 20 33 11 18 1014.3 1013.7 0.0
27/03:00pm 34.4 28.2 -0.3 11 17.1 S 22 33 12 18 1014.6 1014.0 0.0
27/02:30pm 33.9 28.6 -0.7 11 16.9 SW 17 30 9 16 1015.0 1014.4 0.0
27/02:00pm 34.0 26.6 -0.6 11 16.9 S 28 37 15 20 1015.3 1014.7 0.0
27/01:30pm 33.8 27.9 -0.7 11 16.8 SW 20 37 11 20 1015.5 1014.9 0.0
27/01:16pm 33.7 26.3 -0.8 11 16.8 WSW 28 48 15 26 1015.5 1014.9 0.0
27/01:00pm 33.1 26.8 -1.3 11 16.5 SSW 22 41 12 22 1015.7 1015.1 0.0
27/12:30pm 32.9 24.6 -1.4 11 16.4 WSW 32 44 17 24 1016.0 1015.4 0.0
27/12:00pm 32.9 26.3 -0.2 12 16.1 SSW 24 46 13 25 1016.3 1015.7 0.0
27/11:57am 33.1 25.8 -0.1 12 16.3 SSW 28 46 15 25 1016.3 1015.7 0.0
27/11:30am 32.3 26.8 0.4 13 15.7 SSW 19 30 10 16 1016.6 1016.0 0.0
27/11:00am 31.5 26.8 5.1 19 13.9 S 19 26 10 14 1016.9 1016.3 0.0
27/10:30am 30.1 25.6 4.0 19 13.4 S 17 28 9 15 1017.3 1016.6 0.0
27/10:00am 28.5 24.7 4.1 21 12.4 S 13 19 7 10 1017.5 1016.8 0.0
27/09:30am 27.0 22.7 3.5 22 11.8 ESE 15 20 8 11 1017.4 1016.7 0.0
27/09:00am 25.1 20.4 3.1 24 10.8 ESE 17 20 9 11 1017.6 1016.9 -
27/08:30am 24.5 20.3 1.4 22 10.9 SE 13 19 7 10 1017.5 1016.8 -
27/08:00am 21.9 16.7 0.4 24 9.8 SSE 17 20 9 11 1017.4 1016.7 -
27/07:30am 20.3 14.8 0.7 27 8.9 S 19 22 10 12 1017.0 1016.4 -
27/07:00am 17.4 13.2 -0.8 29 7.8 S 11 15 6 8 1016.7 1016.1 -
27/06:30am 15.8 11.5 -1.7 30 7.2 SSE 11 15 6 8 1016.5 1015.9 -
27/06:00am 14.8 10.8 -2.1 31 6.8 ESE 9 9 5 5 1016.2 1015.6 -
27/05:30am 16.3 12.8 -1.7 29 7.5 SE 7 11 4 6 1015.7 1015.1 -
27/05:00am 16.3 11.1 -2.7 27 7.7 S 15 19 8 10 1015.1 1014.5 -
27/04:30am 17.0 10.9 -2.6 26 8.0 S 20 24 11 13 1015.0 1014.4 -
27/04:00am 15.8 10.1 -3.6 26 7.7 S 17 20 9 11 1014.9 1014.3 -
27/03:30am 16.5 11.5 -4.1 24 8.1 SSW 13 15 7 8 1015.0 1014.4 -
27/03:00am 16.0 11.3 -5.1 23 8.1 S 11 13 6 7 1015.1 1014.5 0.0
27/02:30am 18.1 12.8 -3.9 22 8.9 S 15 17 8 9 1015.3 1014.7 -
27/02:00am 16.3 11.6 -5.4 22 8.3 S 11 13 6 7 1015.5 1014.9 -
27/01:30am 17.1 12.4 -5.4 21 8.7 S 11 13 6 7 1015.7 1015.1 -
27/01:00am 18.0 13.3 -5.3 20 9.1 S 11 11 6 6 1015.9 1015.3 -
27/12:30am 18.7 14.3 -5.4 19 9.5 S 9 9 5 5 1016.1 1015.5 -
27/12:00am 19.4 14.3 -5.5 18 9.8 S 13 13 7 7 1016.2 1015.6 -
 
Date/Time
EDT
Temp
°C
App
Temp
°C
Dew
Point
Rel
Hum
%
Delta-T
°C
Wind Press
QNH
hPa
Press
MSL
hPa
Rain
since 9 am
mm
Dir
 
Spd
km/h
Gust
km/h
Spd
kts
Gust
kts
26/11:30pm 19.5 14.0 -5.4 18 9.9 S 15 19 8 10 1016.4 1015.8 -
26/11:00pm 20.5 15.0 -5.4 17 10.4 S 15 17 8 9 1016.3 1015.7 -
26/10:30pm 21.2 15.3 -5.6 16 10.8 S 17 17 9 9 1016.2 1015.6 -
26/10:00pm 22.8 17.4 -4.3 16 11.3 S 15 17 8 9 1016.1 1015.5 -
26/09:30pm 23.2 17.8 -4.8 15 11.7 S 15 19 8 10 1015.9 1015.3 -
26/09:00pm 24.2 18.7 -5.0 14 12.2 S 15 19 8 10 1015.6 1015.0 0.0
26/08:30pm 26.1 20.7 -4.4 13 13.1 S 15 20 8 11 1015.2 1014.6 -
26/08:00pm 28.5 22.3 -4.8 11 14.5 SSW 19 22 10 12 1014.9 1014.3 -
26/07:30pm 30.4 24.2 -4.6 10 15.6 S 19 22 10 12 1014.4 1013.8 -

Other Formats:

Comma delimited format used in spreadsheet applications
http://www.bom.gov.au/fwo/IDN60801/IDN60801.95715.axf

JavaScript Object Notation format (JSON) in row-major order
http://www.bom.gov.au/fwo/IDN60801/IDN60801.95715.json